Time;durP1;ratioP1;P1;durP2;ratioP2;P2;SDS_P1;SDS_P2;PMS_P1;PMS_P2;Temp;Humidity;BMP_temperature;BMP_pressure;BME280_temperature;BME280_humidity;BME280_pressure;Samples;Min_cycle;Max_cycle;Signal;HPM_P1;HPM_P2
2022/08/30 00:03:09;;;;;;;9.68;5.30;;;;;;;18.60;66.98;101775.66;3591209;39;20084;-64
2022/08/30 00:05:35;;;;;;;8.00;5.15;;;;;;;18.59;66.81;101782.13;3593111;39;20062;-62
2022/08/30 00:08:01;;;;;;;12.30;5.55;;;;;;;18.56;67.53;101775.06;3591041;39;20060;-63
2022/08/30 00:10:28;;;;;;;9.52;5.10;;;;;;;18.52;68.33;101772.69;3590711;39;20125;-62
2022/08/30 00:12:56;;;;;;;10.43;5.28;;;;;;;18.48;67.76;101776.66;3590833;39;20391;-63
2022/08/30 00:15:23;;;;;;;10.23;5.40;;;;;;;18.44;68.02;101775.16;3590054;39;20121;-63
2022/08/30 00:17:49;;;;;;;14.80;6.07;;;;;;;18.44;68.72;101777.91;3589266;39;20092;-62
2022/08/30 00:20:21;;;;;;;8.48;5.22;;;;;;;18.40;68.24;101780.00;3589365;39;20091;-63
2022/08/30 00:22:47;;;;;;;10.32;5.60;;;;;;;18.37;68.46;101776.66;3589835;39;20133;-64
2022/08/30 00:25:15;;;;;;;13.52;5.63;;;;;;;18.33;68.34;101785.06;3591268;39;20347;-63
2022/08/30 00:27:42;;;;;;;9.25;5.18;;;;;;;18.06;69.15;101744.56;3589615;39;20056;-63
2022/08/30 00:30:09;;;;;;;9.55;4.82;;;;;;;18.29;69.05;101783.56;3590112;39;20396;-63
2022/08/30 00:32:34;;;;;;;8.93;5.40;;;;;;;18.30;69.11;101784.44;3591055;39;20088;-63
2022/08/30 00:35:01;;;;;;;10.43;5.30;;;;;;;18.29;69.17;101782.69;3588101;39;20047;-65
2022/08/30 00:37:26;;;;;;;8.10;5.40;;;;;;;18.28;69.90;101784.56;3588750;39;20055;-63
2022/08/30 00:39:52;;;;;;;8.63;4.93;;;;;;;17.53;69.90;101653.53;3590102;39;20055;-64
2022/08/30 00:42:21;;;;;;;9.65;5.82;;;;;;;18.29;69.89;101783.56;3587736;39;20058;-63
2022/08/30 00:44:48;;;;;;;7.35;4.80;;;;;;;18.34;70.13;101785.94;3589056;39;20056;-63
2022/08/30 00:47:14;;;;;;;7.53;4.78;;;;;;;18.31;69.78;101773.41;3584404;40;20103;-63
2022/08/30 00:49:46;;;;;;;9.63;5.03;;;;;;;18.33;69.46;101774.19;3591768;39;20047;-63
2022/08/30 00:52:15;;;;;;;8.85;5.40;;;;;;;18.43;70.10;101781.63;3587754;39;20052;-63
2022/08/30 00:54:46;;;;;;;8.50;4.97;;;;;;;18.42;69.62;101785.31;3592129;39;20063;-62
2022/08/30 00:57:14;;;;;;;7.43;4.85;;;;;;;18.44;69.97;101775.16;3587646;39;20125;-62
2022/08/30 00:59:45;;;;;;;9.48;4.75;;;;;;;18.46;70.15;101786.81;3590083;39;20058;-63
2022/08/30 01:02:11;;;;;;;7.82;4.63;;;;;;;18.48;69.48;101782.09;3589382;39;20361;-63
2022/08/30 01:04:42;;;;;;;10.30;5.35;;;;;;;18.43;70.00;101773.44;3589896;39;20068;-62
2022/08/30 01:07:08;;;;;;;9.15;5.10;;;;;;;18.46;69.59;101771.34;3588241;39;20070;-62
2022/08/30 01:09:36;;;;;;;8.70;4.78;;;;;;;18.54;69.58;101782.47;3587922;39;20051;-63
2022/08/30 01:12:04;;;;;;;5.72;4.60;;;;;;;18.53;69.16;101775.28;3587704;39;20310;-63
2022/08/30 01:14:32;;;;;;;9.45;4.80;;;;;;;18.42;69.34;101760.81;3588445;39;20059;-63
2022/08/30 01:17:00;;;;;;;6.60;4.57;;;;;;;18.61;69.07;101792.88;3587079;39;20047;-63
2022/08/30 01:19:37;;;;;;;11.13;5.22;;;;;;;18.61;69.50;101792.88;3591346;39;20372;-63
2022/08/30 01:22:22;;;;;;;8.02;4.85;;;;;;;18.33;69.48;101746.97;3587648;39;20052;-63
2022/08/30 01:24:51;;;;;;;7.53;4.85;;;;;;;18.42;69.81;101758.06;3585758;39;20052;-63
2022/08/30 01:27:22;;;;;;;6.82;4.75;;;;;;;18.53;69.65;101782.59;3591755;39;20123;-62
2022/08/30 01:29:49;;;;;;;9.38;5.50;;;;;;;18.58;69.14;101776.78;3590441;39;20090;-63
2022/08/30 01:32:20;;;;;;;5.13;4.25;;;;;;;18.39;69.57;101761.03;3588957;39;20068;-62
2022/08/30 01:34:47;;;;;;;9.85;4.75;;;;;;;18.50;69.33;101785.56;3586886;39;20056;-62
2022/08/30 01:37:35;;;;;;;7.40;5.13;;;;;;;18.46;69.18;101789.53;3589461;39;20063;-62
2022/08/30 01:40:01;;;;;;;6.25;4.93;;;;;;;18.42;70.01;101797.06;3585440;39;20436;-62
2022/08/30 01:42:27;;;;;;;10.38;4.90;;;;;;;18.41;69.82;101792.63;3590069;39;20075;-63
2022/08/30 01:44:53;;;;;;;8.15;4.93;;;;;;;18.32;69.49;101788.75;3589140;39;20048;-62
2022/08/30 01:47:20;;;;;;;8.98;4.88;;;;;;;18.38;70.28;101798.31;3590809;39;20095;-62
2022/08/30 01:49:47;;;;;;;8.23;5.07;;;;;;;18.37;70.19;101795.72;3590627;39;20048;-63
2022/08/30 01:52:15;;;;;;;9.15;5.25;;;;;;;18.34;70.53;101791.38;3592633;39;20112;-63
2022/08/30 01:54:44;;;;;;;8.43;5.38;;;;;;;18.27;69.75;101790.13;3592956;39;20071;-63
2022/08/30 01:57:15;;;;;;;8.13;5.18;;;;;;;18.25;70.28;101783.94;3589907;39;20063;-63
2022/08/30 01:59:46;;;;;;;7.78;5.30;;;;;;;18.27;70.95;101788.28;3590616;39;20076;-63
2022/08/30 02:02:29;;;;;;;8.73;5.30;;;;;;;18.24;71.08;101785.78;3591524;39;20052;-63
2022/08/30 02:04:56;;;;;;;6.88;4.97;;;;;;;18.23;71.03;101781.31;3589663;39;20120;-63
2022/08/30 02:07:23;;;;;;;10.15;4.95;;;;;;;18.23;70.37;101783.19;3589065;39;20061;-63
2022/08/30 02:09:51;;;;;;;10.18;5.63;;;;;;;18.21;70.86;101780.59;3589263;39;20099;-63
2022/08/30 02:12:18;;;;;;;7.28;5.35;;;;;;;18.16;71.06;101780.06;3591808;39;20555;-63
2022/08/30 02:14:43;;;;;;;8.82;5.47;;;;;;;18.08;70.55;101775.25;3589744;39;20129;-62
2022/08/30 02:17:12;;;;;;;10.27;5.53;;;;;;;18.08;70.54;101785.28;3591382;39;20067;-63
2022/08/30 02:19:38;;;;;;;9.65;5.68;;;;;;;18.03;71.66;101779.31;3595452;39;20056;-62
2022/08/30 02:22:05;;;;;;;6.63;5.13;;;;;;;17.97;71.59;101774.34;3590507;39;20298;-62
2022/08/30 02:24:31;;;;;;;9.10;5.82;;;;;;;17.97;71.70;101777.94;3588430;39;20081;-62
2022/08/30 02:26:57;;;;;;;8.77;5.20;;;;;;;17.95;71.76;101774.47;3588666;39;20055;-62
2022/08/30 02:29:25;;;;;;;8.63;5.63;;;;;;;17.82;71.59;101757.34;3591099;39;20371;-62
2022/08/30 02:31:51;;;;;;;7.07;5.60;;;;;;;17.83;71.77;101759.97;3588804;39;20309;-62
2022/08/30 02:34:18;;;;;;;6.95;5.72;;;;;;;17.91;71.98;101775.69;3589932;39;20059;-62
2022/08/30 02:36:44;;;;;;;8.18;5.65;;;;;;;17.88;72.13;101772.34;3579217;39;20074;-63
2022/08/30 02:39:12;;;;;;;7.40;5.50;;;;;;;17.84;71.94;101767.13;3590496;39;20053;-63
2022/08/30 02:41:40;;;;;;;9.75;5.88;;;;;;;17.81;71.93;101767.38;3588723;39;20490;-63
2022/08/30 02:44:07;;;;;;;8.98;6.03;;;;;;;17.79;72.63;101763.91;3591747;39;20048;-63
2022/08/30 02:46:34;;;;;;;7.68;6.00;;;;;;;17.77;72.37;101762.31;3591033;39;20263;-63
2022/08/30 02:49:00;;;;;;;8.60;5.78;;;;;;;17.76;72.65;101769.56;3589769;39;20047;-63
2022/08/30 02:51:26;;;;;;;9.15;5.65;;;;;;;17.76;72.41;101775.00;3591170;39;20487;-63
2022/08/30 02:53:52;;;;;;;8.63;6.00;;;;;;;17.73;71.80;101764.34;3591162;39;20051;-63
2022/08/30 02:56:17;;;;;;;6.63;5.95;;;;;;;17.70;71.86;101764.59;3591865;39;20302;-63
2022/08/30 02:58:44;;;;;;;6.10;5.50;;;;;;;17.53;72.22;101724.22;3588423;39;20103;-63
2022/08/30 03:01:13;;;;;;;9.18;6.30;;;;;;;17.69;72.23;101768.28;3588798;39;20055;-64
2022/08/30 03:03:42;;;;;;;7.95;5.85;;;;;;;17.68;72.51;101761.13;3588722;39;20071;-64
2022/08/30 03:06:09;;;;;;;7.93;6.22;;;;;;;17.67;72.58;101753.94;3589956;39;20051;-64
2022/08/30 03:08:35;;;;;;;9.52;6.03;;;;;;;17.64;72.81;101754.19;3588901;39;20117;-64
2022/08/30 03:11:02;;;;;;;6.53;5.93;;;;;;;17.64;72.68;101754.19;3589315;39;20095;-64
2022/08/30 03:13:29;;;;;;;9.20;6.18;;;;;;;17.62;72.30;101757.00;3590976;39;20052;-64
2022/08/30 03:15:54;;;;;;;6.75;5.90;;;;;;;17.64;72.64;101754.19;3591896;39;20099;-64
2022/08/30 03:18:22;;;;;;;8.88;6.13;;;;;;;17.67;72.29;101753.09;3589571;39;20070;-64
2022/08/30 03:20:48;;;;;;;7.60;6.20;;;;;;;17.70;72.55;101752.84;3592212;39;20283;-64
2022/08/30 03:23:16;;;;;;;8.60;6.60;;;;;;;17.70;72.54;101756.44;3589564;39;20334;-63
2022/08/30 03:25:42;;;;;;;6.53;5.93;;;;;;;17.72;72.75;101762.59;3589264;39;20219;-64
2022/08/30 03:28:08;;;;;;;8.93;6.13;;;;;;;17.74;72.29;101755.19;3589084;39;20120;-64
2022/08/30 03:30:34;;;;;;;7.82;6.38;;;;;;;17.69;72.59;101746.53;3588664;39;20417;-64
2022/08/30 03:33:01;;;;;;;9.70;6.65;;;;;;;17.56;72.60;101726.72;3587939;39;20067;-64
2022/08/30 03:35:27;;;;;;;7.93;6.28;;;;;;;17.50;72.23;101724.47;3587546;39;20055;-64
2022/08/30 03:37:52;;;;;;;8.73;6.10;;;;;;;17.59;72.40;101734.63;3589435;39;20096;-64
2022/08/30 03:40:21;;;;;;;7.53;6.28;;;;;;;17.65;72.31;101750.47;3591566;39;20055;-64
2022/08/30 03:42:47;;;;;;;9.80;6.22;;;;;;;17.56;72.44;101748.47;3589335;39;20414;-64
2022/08/30 03:45:17;;;;;;;7.07;6.40;;;;;;;17.62;72.65;101753.44;3591962;39;20054;-64
2022/08/30 03:47:44;;;;;;;10.27;6.80;;;;;;;17.60;72.84;101758.09;3588323;39;20067;-64
2022/08/30 03:50:13;;;;;;;7.82;6.68;;;;;;;17.56;72.37;101751.19;3589131;39;20152;-63
2022/08/30 03:52:39;;;;;;;8.32;6.22;;;;;;;17.55;72.55;101754.88;3589385;39;20475;-64
2022/08/30 03:55:05;;;;;;;7.20;6.50;;;;;;;17.58;72.18;101762.81;3588839;39;20048;-64
2022/08/30 03:57:32;;;;;;;7.25;6.57;;;;;;;17.57;72.24;101763.78;3590757;39;20056;-64
2022/08/30 03:59:58;;;;;;;10.93;6.93;;;;;;;17.55;72.95;101761.19;3588632;39;20068;-64
2022/08/30 04:02:23;;;;;;;8.27;6.90;;;;;;;17.53;72.27;101762.28;3587733;39;20052;-64
2022/08/30 04:04:49;;;;;;;10.98;6.60;;;;;;;17.50;72.94;101752.50;3585341;39;20083;-63
2022/08/30 04:07:15;;;;;;;7.43;6.68;;;;;;;17.54;72.60;101758.59;3588948;39;20324;-63
2022/08/30 04:09:41;;;;;;;11.13;7.30;;;;;;;17.53;72.40;101756.84;3587718;39;21175;-63
2022/08/30 04:12:07;;;;;;;7.82;7.03;;;;;;;17.53;72.53;101759.56;3585948;39;20072;-63
2022/08/30 04:14:32;;;;;;;7.85;7.10;;;;;;;17.51;72.18;101758.84;3585747;39;20127;-63
2022/08/30 04:16:58;;;;;;;11.05;7.07;;;;;;;17.48;72.55;101759.94;3588592;39;21355;-63
2022/08/30 04:19:24;;;;;;;8.93;7.35;;;;;;;17.45;72.98;101759.31;3591968;39;20424;-63
2022/08/30 04:21:49;;;;;;;11.35;7.55;;;;;;;17.44;72.96;101757.53;3586604;39;20055;-63
2022/08/30 04:24:15;;;;;;;7.85;7.05;;;;;;;17.46;73.28;101755.59;3588747;39;20070;-63
2022/08/30 04:26:41;;;;;;;8.20;7.25;;;;;;;17.46;73.21;101772.75;3586332;39;20409;-63
2022/08/30 04:29:07;;;;;;;8.25;7.45;;;;;;;17.48;72.63;101764.50;3589373;39;20138;-62
2022/08/30 04:31:32;;;;;;;9.85;7.18;;;;;;;17.48;72.56;101768.09;3589007;39;20394;-62
2022/08/30 04:33:58;;;;;;;10.18;7.72;;;;;;;17.49;73.30;101771.66;3587401;39;21525;-63
2022/08/30 04:36:23;;;;;;;10.52;7.40;;;;;;;17.49;72.25;101777.09;3588660;39;20480;-62
2022/08/30 04:38:49;;;;;;;8.90;8.00;;;;;;;17.47;73.39;101768.19;3587848;39;20060;-62
2022/08/30 04:41:19;;;;;;;9.30;7.70;;;;;;;17.45;73.20;101770.19;3589586;39;20054;-63
2022/08/30 04:43:49;;;;;;;10.20;8.05;;;;;;;17.47;72.58;101781.78;3588753;39;20064;-64
2022/08/30 04:46:17;;;;;;;12.07;7.32;;;;;;;17.44;72.66;101782.00;3588694;39;20073;-63
2022/08/30 04:48:43;;;;;;;10.23;7.90;;;;;;;17.42;72.71;101787.56;3589019;39;20052;-63
2022/08/30 04:51:14;;;;;;;9.95;8.40;;;;;;;17.38;73.21;101780.66;3586993;39;20058;-63
2022/08/30 04:53:42;;;;;;;12.27;8.07;;;;;;;17.36;73.22;101782.59;3588408;39;20044;-63
2022/08/30 04:56:23;;;;;;;10.57;8.13;;;;;;;17.33;73.64;101782.84;3586000;39;20561;-63
2022/08/30 04:58:52;;;;;;;11.73;8.63;;;;;;;17.25;73.04;101775.22;3586515;39;20048;-63
2022/08/30 05:01:24;;;;;;;10.18;8.70;;;;;;;17.28;73.29;101788.59;3588835;39;20059;-63
2022/08/30 05:03:52;;;;;;;10.27;8.57;;;;;;;17.25;73.65;101779.81;3587215;39;20314;-63
2022/08/30 05:06:19;;;;;;;9.88;8.50;;;;;;;17.25;72.92;101780.66;3587027;39;20064;-63
2022/08/30 05:08:44;;;;;;;9.63;8.63;;;;;;;17.24;72.92;101784.38;3586291;39;20060;-63
2022/08/30 05:11:10;;;;;;;10.60;9.55;;;;;;;17.06;73.54;101758.56;3589827;39;21090;-63
2022/08/30 05:13:37;;;;;;;9.80;8.95;;;;;;;17.24;73.84;101787.09;3579947;40;20091;-63
2022/08/30 05:16:06;;;;;;;11.50;9.40;;;;;;;17.22;73.67;101785.47;3587133;39;20382;-63
2022/08/30 05:18:33;;;;;;;11.20;9.82;;;;;;;17.21;73.10;101794.63;3589677;39;20048;-63
2022/08/30 05:21:05;;;;;;;12.55;9.82;;;;;;;17.22;73.93;101791.78;3584406;39;20128;-63
2022/08/30 05:23:31;;;;;;;12.52;10.10;;;;;;;17.12;73.92;101779.84;3587170;39;20048;-63
2022/08/30 05:25:56;;;;;;;11.13;9.68;;;;;;;17.21;73.83;101800.91;3586850;39;20062;-63
2022/08/30 05:28:22;;;;;;;12.07;10.88;;;;;;;17.22;73.47;101801.78;3589113;39;20337;-63
2022/08/30 05:30:47;;;;;;;11.60;9.82;;;;;;;17.20;73.94;101799.19;3587020;39;20044;-63
2022/08/30 05:33:13;;;;;;;12.32;10.23;;;;;;;17.26;73.42;101803.31;3587840;39;20048;-63
2022/08/30 05:35:39;;;;;;;12.05;10.57;;;;;;;17.25;73.45;101809.69;3588945;39;20302;-63
2022/08/30 05:38:05;;;;;;;14.27;10.93;;;;;;;17.27;73.18;101811.31;3587816;39;20056;-63
2022/08/30 05:40:31;;;;;;;12.40;10.50;;;;;;;17.31;73.59;101810.09;3589090;39;20379;-63
2022/08/30 05:42:56;;;;;;;11.32;9.85;;;;;;;17.36;73.06;101807.94;3588748;39;20052;-63
2022/08/30 05:45:22;;;;;;;12.75;11.02;;;;;;;17.40;73.32;101809.41;3588210;39;20052;-63
2022/08/30 05:47:48;;;;;;;13.00;10.93;;;;;;;17.42;73.51;101803.03;3589376;39;20069;-63
2022/08/30 05:50:14;;;;;;;11.65;10.50;;;;;;;17.44;72.67;101803.75;3589692;39;20064;-63
2022/08/30 05:52:43;;;;;;;14.50;10.57;;;;;;;17.47;72.76;101798.94;3586056;39;20056;-63
2022/08/30 05:55:10;;;;;;;13.10;10.55;;;;;;;17.48;73.28;101810.72;3589474;39;20124;-63
2022/08/30 05:57:39;;;;;;;11.38;10.27;;;;;;;17.46;73.02;101799.94;3589813;39;20298;-63
2022/08/30 06:00:12;;;;;;;12.40;11.13;;;;;;;17.47;73.11;101801.66;3589843;39;20343;-63
2022/08/30 06:02:39;;;;;;;13.95;11.23;;;;;;;17.48;73.18;101811.59;3588262;39;20165;-63
2022/08/30 06:05:07;;;;;;;16.65;12.43;;;;;;;17.50;73.08;101814.16;3590071;39;20075;-63
2022/08/30 06:07:33;;;;;;;12.75;11.35;;;;;;;17.56;72.51;101811.00;3582778;39;20067;-61
2022/08/30 06:09:59;;;;;;;13.55;10.48;;;;;;;17.58;73.12;101814.47;3587864;39;20170;-61
2022/08/30 06:12:25;;;;;;;15.90;11.40;;;;;;;17.46;72.00;101791.78;3587272;39;20063;-61
2022/08/30 06:14:50;;;;;;;20.02;11.77;;;;;;;17.69;72.57;101816.38;3579090;39;20064;-62
2022/08/30 06:17:16;;;;;;;13.90;11.13;;;;;;;17.75;71.68;101816.75;3582824;40;20405;-61
2022/08/30 06:19:42;;;;;;;15.38;11.55;;;;;;;17.77;72.00;101820.28;3582024;39;20079;-61
2022/08/30 06:22:07;;;;;;;14.38;11.20;;;;;;;17.81;71.17;101805.44;3584075;39;20180;-61
2022/08/30 06:24:35;;;;;;;16.02;11.50;;;;;;;17.87;71.79;101815.00;3591984;39;20052;-62
2022/08/30 06:27:01;;;;;;;13.63;12.13;;;;;;;17.93;70.90;101805.50;3590085;39;20036;-61
2022/08/30 06:29:27;;;;;;;12.48;11.07;;;;;;;17.86;71.27;101800.53;3590632;39;20456;-63
2022/08/30 06:31:55;;;;;;;13.18;11.70;;;;;;;17.93;71.03;101795.47;3586823;39;20060;-61
2022/08/30 06:34:21;;;;;;;12.38;11.20;;;;;;;18.05;70.93;101807.28;3591957;39;20299;-63
2022/08/30 06:36:47;;;;;;;12.90;10.98;;;;;;;18.07;70.17;101808.00;3592075;39;21291;-63
2022/08/30 06:39:13;;;;;;;11.82;10.70;;;;;;;18.10;71.11;101810.50;3592093;39;20051;-63
2022/08/30 06:41:41;;;;;;;12.98;11.15;;;;;;;18.14;70.17;101797.50;3578185;39;20407;-64
2022/08/30 06:44:07;;;;;;;12.07;10.88;;;;;;;18.26;69.62;101802.84;3592885;39;20064;-64
2022/08/30 06:46:37;;;;;;;11.98;10.77;;;;;;;18.38;69.76;101802.88;3589049;39;20072;-64
2022/08/30 06:49:05;;;;;;;11.38;10.18;;;;;;;18.37;69.56;101787.56;3587648;39;20059;-64
2022/08/30 06:51:36;;;;;;;12.60;10.07;;;;;;;18.53;68.87;101801.66;3589068;39;20087;-64
2022/08/30 06:54:04;;;;;;;11.38;10.27;;;;;;;18.66;68.29;101802.41;3589109;39;20051;-64
2022/08/30 06:56:30;;;;;;;11.90;9.45;;;;;;;18.79;67.91;101803.19;3587310;39;20051;-64
2022/08/30 06:58:56;;;;;;;11.00;9.32;;;;;;;18.92;67.41;101802.19;3589574;39;20051;-64
2022/08/30 07:01:27;;;;;;;9.77;8.82;;;;;;;19.00;66.83;101789.69;3588599;39;20054;-64
2022/08/30 07:03:54;;;;;;;12.32;9.02;;;;;;;19.29;66.85;101810.06;3588193;39;20090;-64
2022/08/30 07:06:22;;;;;;;9.63;8.38;;;;;;;19.49;65.88;101817.44;3588058;39;20056;-64
2022/08/30 07:08:49;;;;;;;9.18;7.82;;;;;;;19.65;64.20;101807.00;3589701;39;20063;-64
2022/08/30 07:11:27;;;;;;;8.65;7.90;;;;;;;19.85;64.49;101801.69;3585200;39;20279;-64
2022/08/30 07:13:52;;;;;;;10.65;8.55;;;;;;;20.04;63.90;101803.72;3587054;39;20044;-64
2022/08/30 07:16:18;;;;;;;10.63;7.55;;;;;;;20.23;63.64;101797.53;3591130;39;20064;-64
2022/08/30 07:18:53;;;;;;;11.30;7.93;;;;;;;20.24;61.82;101788.34;3590941;39;20161;-64
2022/08/30 07:21:35;;;;;;;8.27;7.30;;;;;;;20.51;61.36;101804.16;3590615;39;20124;-64
2022/08/30 07:24:02;;;;;;;9.52;7.22;;;;;;;20.76;61.07;101825.59;3587006;39;20066;-64
2022/08/30 07:26:35;;;;;;;7.78;6.97;;;;;;;20.86;60.19;101821.03;3589572;39;20064;-64
2022/08/30 07:29:04;;;;;;;8.40;7.60;;;;;;;20.81;60.05;101823.34;3587258;39;20052;-64
2022/08/30 07:31:30;;;;;;;7.95;7.00;;;;;;;20.47;59.86;101770.78;3587366;39;20418;-64
2022/08/30 07:33:56;;;;;;;8.68;6.93;;;;;;;20.76;60.16;101819.28;3588237;39;20129;-64
2022/08/30 07:36:23;;;;;;;7.45;6.70;;;;;;;20.74;60.34;101832.19;3589894;39;20086;-63
2022/08/30 07:38:51;;;;;;;7.93;6.97;;;;;;;20.82;60.56;101826.94;3589136;39;20091;-63
2022/08/30 07:41:28;;;;;;;8.07;6.78;;;;;;;20.93;59.58;101824.09;3578615;39;20378;-64
2022/08/30 07:43:54;;;;;;;7.07;6.45;;;;;;;21.01;59.14;101824.25;3589680;39;20089;-64
2022/08/30 07:46:22;;;;;;;9.68;7.53;;;;;;;21.12;59.35;101825.16;3586175;39;20106;-64
2022/08/30 07:48:48;;;;;;;10.48;7.28;;;;;;;21.21;58.63;101819.72;3588047;39;20051;-64
2022/08/30 07:51:20;;;;;;;8.05;7.25;;;;;;;21.35;58.31;101812.13;3588305;39;20066;-63
2022/08/30 07:53:46;;;;;;;7.75;6.85;;;;;;;21.60;57.49;101824.41;3582225;39;20345;-64
2022/08/30 07:56:12;;;;;;;12.07;7.13;;;;;;;21.67;56.63;101815.50;3588187;39;20091;-64
2022/08/30 07:58:38;;;;;;;7.47;6.53;;;;;;;21.65;57.88;101828.47;3588124;39;20044;-64
2022/08/30 08:01:07;;;;;;;8.18;6.30;;;;;;;21.70;57.92;101828.91;3588214;39;20051;-64
2022/08/30 08:03:35;;;;;;;7.43;6.60;;;;;;;21.82;57.60;101824.16;3587271;39;20097;-64
2022/08/30 08:06:07;;;;;;;6.90;6.18;;;;;;;22.06;56.60;101836.53;3587016;39;20044;-64
2022/08/30 08:08:34;;;;;;;6.82;6.13;;;;;;;22.19;56.51;101837.13;3588435;39;20117;-64
2022/08/30 08:11:08;;;;;;;8.07;6.03;;;;;;;22.29;56.19;101827.03;3591080;39;20060;-64
2022/08/30 08:13:35;;;;;;;6.47;5.72;;;;;;;22.37;56.29;101821.69;3586716;39;20227;-64
2022/08/30 08:16:00;;;;;;;6.75;5.82;;;;;;;22.45;55.32;101824.56;3588687;39;20112;-64
2022/08/30 08:18:26;;;;;;;6.43;5.82;;;;;;;22.54;54.79;101830.16;3588549;39;20071;-64
2022/08/30 08:20:51;;;;;;;7.28;6.40;;;;;;;22.53;54.88;101825.69;3589080;39;20409;-64
2022/08/30 08:23:17;;;;;;;13.02;6.47;;;;;;;22.61;54.86;101842.22;3589010;39;20392;-65
2022/08/30 08:25:43;;;;;;;8.80;5.80;;;;;;;22.64;54.79;101830.97;3588365;39;20060;-64
2022/08/30 08:28:09;;;;;;;8.05;6.18;;;;;;;22.72;54.05;101833.84;3589578;39;20059;-64
2022/08/30 08:30:37;;;;;;;10.02;7.80;;;;;;;22.71;53.90;101837.63;3588021;39;20071;-64
2022/08/30 08:33:05;;;;;;;8.52;6.40;;;;;;;22.74;54.13;101831.84;3589564;39;20051;-65
2022/08/30 08:35:32;;;;;;;6.90;6.25;;;;;;;22.84;54.08;101843.63;3587647;39;20047;-65
2022/08/30 08:37:58;;;;;;;8.73;5.88;;;;;;;22.94;54.22;101830.75;3579788;39;20320;-64
2022/08/30 08:40:25;;;;;;;8.55;6.18;;;;;;;22.92;54.02;101815.44;3587275;39;20062;-65
2022/08/30 08:43:09;;;;;;;6.00;5.38;;;;;;;23.11;53.29;101828.22;3588424;39;20048;-65
2022/08/30 08:46:08;;;;;;;6.32;4.80;;;;;;;23.49;52.54;101850.97;3585255;39;20137;-65
2022/08/30 08:48:45;;;;;;;7.57;5.20;;;;;;;23.70;51.46;101851.56;3586755;39;20056;-65
2022/08/30 08:54:16;;;;;;;4.82;4.43;;;;;;;23.93;50.59;101840.13;3589162;39;20054;-65
2022/08/30 08:56:42;;;;;;;5.65;3.95;;;;;;;24.09;50.56;101854.00;3586820;39;20088;-64
2022/08/30 08:59:10;;;;;;;3.55;3.25;;;;;;;24.13;50.50;101847.16;3589277;39;20075;-64
2022/08/30 09:01:37;;;;;;;7.25;3.60;;;;;;;24.21;50.04;101844.50;3587098;39;20075;-65
2022/08/30 09:04:16;;;;;;;4.95;3.15;;;;;;;24.44;49.39;101844.00;3585045;39;20147;-65
2022/08/30 09:06:59;;;;;;;3.33;2.95;;;;;;;24.62;48.49;101847.56;3587587;39;20398;-64
2022/08/30 09:09:31;;;;;;;2.92;2.58;;;;;;;24.85;47.53;101844.25;3581616;39;20067;-64
2022/08/30 09:11:57;;;;;;;3.03;2.63;;;;;;;24.95;47.77;101839.50;3583143;39;20096;-64
2022/08/30 09:14:32;;;;;;;6.43;2.70;;;;;;;25.11;46.06;101841.47;3580595;39;20071;-65
2022/08/30 09:17:16;;;;;;;5.97;4.07;;;;;;;25.20;46.34;101843.25;3583577;39;20063;-65
2022/08/30 09:19:59;;;;;;;4.32;2.60;;;;;;;25.30;45.31;101841.22;3589963;39;20071;-65
2022/08/30 09:22:32;;;;;;;3.33;2.30;;;;;;;25.44;44.16;101842.50;3587730;39;20056;-65
2022/08/30 09:25:31;;;;;;;5.97;2.78;;;;;;;25.58;44.87;101844.56;3587954;39;20070;-67
2022/08/30 09:28:14;;;;;;;4.00;2.13;;;;;;;25.73;44.98;101843.94;3586417;39;20372;-65
2022/08/30 09:31:16;;;;;;;2.70;2.50;;;;;;;25.97;44.63;101846.72;3587750;39;20052;-64
2022/08/30 09:34:00;;;;;;;2.80;1.90;;;;;;;26.25;43.75;101847.25;3586013;39;20511;-64
2022/08/30 09:36:33;;;;;;;4.25;2.10;;;;;;;26.50;43.87;101844.50;3591555;39;20050;-66
2022/08/30 09:39:05;;;;;;;;;;;;;;;26.55;42.46;101853.97;3590025;39;20299;-65
2022/08/30 09:41:41;;;;;;;12.13;7.20;;;;;;;26.71;41.28;101838.44;3588870;39;20304;-65
2022/08/30 09:44:18;;;;;;;3.40;2.10;;;;;;;26.82;42.66;101844.41;3588318;39;20043;-65
2022/08/30 09:46:48;;;;;;;3.90;2.08;;;;;;;27.02;42.26;101842.13;3580351;39;20064;-65
2022/08/30 09:49:35;;;;;;;3.83;2.13;;;;;;;27.34;41.42;101832.00;3587244;39;20066;-65
2022/08/30 09:52:22;;;;;;;3.17;1.90;;;;;;;27.54;40.02;101849.84;3587890;39;20078;-66
2022/08/30 09:55:13;;;;;;;3.03;2.00;;;;;;;27.54;40.51;101837.94;3588058;39;20051;-65
2022/08/30 09:58:00;;;;;;;3.92;1.98;;;;;;;27.52;39.55;101857.44;3584982;39;20137;-66
2022/08/30 10:00:37;;;;;;;4.22;2.17;;;;;;;27.54;40.15;101843.47;3586069;39;20059;-66
2022/08/30 10:03:15;;;;;;;8.40;2.28;;;;;;;27.64;41.29;101843.22;3586421;39;20468;-65
2022/08/30 10:06:09;;;;;;;3.47;2.17;;;;;;;27.72;39.51;101845.91;3581050;39;20058;-65
2022/08/30 10:08:56;;;;;;;3.17;2.28;;;;;;;27.73;40.07;101842.13;3577350;39;20398;-66
2022/08/30 10:12:04;;;;;;;3.75;2.00;;;;;;;27.65;38.87;101839.41;3588012;39;20107;-65
2022/08/30 10:15:00;;;;;;;3.53;2.60;;;;;;;27.57;39.77;101845.00;3591421;39;20121;-65
2022/08/30 10:17:37;;;;;;;8.07;6.25;;;;;;;27.62;40.16;101840.63;3590001;39;20060;-65
2022/08/30 10:20:29;;;;;;;3.75;2.10;;;;;;;27.67;39.59;101842.84;3590089;39;20070;-65
2022/08/30 10:23:12;;;;;;;4.43;2.58;;;;;;;27.71;38.52;101836.78;3589247;39;20099;-65
2022/08/30 10:25:53;;;;;;;4.80;2.15;;;;;;;27.63;39.00;101836.00;3589877;39;20715;-66
2022/08/30 10:28:44;;;;;;;3.08;1.67;;;;;;;27.51;38.63;101830.00;3589165;39;20048;-65
2022/08/30 10:31:30;;;;;;;5.00;2.10;;;;;;;27.57;39.57;101842.25;3591808;39;20056;-65
2022/08/30 10:34:08;;;;;;;4.72;2.20;;;;;;;27.72;39.00;101841.28;3589629;39;20047;-65
2022/08/30 10:36:58;;;;;;;7.68;3.58;;;;;;;27.89;38.32;101830.97;3589436;39;20075;-65
2022/08/30 10:39:32;;;;;;;1.85;1.65;;;;;;;27.95;37.75;101834.91;3589388;39;20096;-64
2022/08/30 10:42:20;;;;;;;3.05;1.83;;;;;;;28.08;37.63;101839.81;3588941;39;20052;-66
2022/08/30 10:45:13;;;;;;;3.03;1.55;;;;;;;28.06;38.48;101820.66;3591636;39;20302;-66
2022/08/30 10:48:15;;;;;;;2.10;1.90;;;;;;;28.24;37.46;101835.00;3588621;39;20139;-65
2022/08/30 10:50:49;;;;;;;3.58;1.80;;;;;;;28.34;37.62;101836.66;3592107;39;20124;-65
2022/08/30 10:53:28;;;;;;;2.35;2.10;;;;;;;28.39;36.22;101826.75;3592115;39;20052;-64
2022/08/30 10:56:04;;;;;;;3.70;1.80;;;;;;;28.38;36.77;101825.00;3591948;39;20064;-64
2022/08/30 10:58:31;;;;;;;4.43;1.90;;;;;;;28.56;36.24;101830.22;3591768;39;20107;-65
2022/08/30 11:01:46;;;;;;;4.43;1.60;;;;;;;28.71;36.91;101819.19;3591485;39;20133;-65
2022/08/30 11:04:43;;;;;;;2.78;1.52;;;;;;;28.92;36.24;101819.28;3592026;39;20087;-65
2022/08/30 11:07:37;;;;;;;8.00;2.00;;;;;;;29.01;36.55;101825.59;3591067;39;20044;-65
2022/08/30 11:10:30;;;;;;;4.82;1.85;;;;;;;29.06;35.54;101794.56;3590888;39;20091;-65
2022/08/30 11:13:16;;;;;;;1.50;1.40;;;;;;;29.42;35.67;101821.41;3590534;39;20493;-65
2022/08/30 11:16:15;;;;;;;3.22;1.83;;;;;;;29.23;35.83;101826.50;3588967;39;20068;-65
2022/08/30 11:18:53;;;;;;;5.95;1.60;;;;;;;29.03;36.26;101825.41;3579882;39;20055;-65
2022/08/30 11:21:22;;;;;;;2.83;1.80;;;;;;;28.99;35.81;101824.03;3586145;39;20100;-65
2022/08/30 11:24:07;;;;;;;2.40;1.70;;;;;;;28.89;35.58;101803.06;3589556;39;20056;-65
2022/08/30 11:26:48;;;;;;;2.28;1.48;;;;;;;28.88;36.00;101820.69;3589808;39;20349;-65
2022/08/30 11:29:25;;;;;;;3.75;1.85;;;;;;;28.82;36.26;101809.53;3588344;39;20059;-65
2022/08/30 11:31:54;;;;;;;6.32;1.92;;;;;;;28.89;36.36;101816.91;3587840;39;20047;-65
2022/08/30 11:34:54;;;;;;;2.42;1.48;;;;;;;28.74;35.49;101804.13;3588278;39;20063;-65
2022/08/30 11:37:40;;;;;;;3.85;1.75;;;;;;;28.82;35.89;101818.69;3583281;39;20422;-65
2022/08/30 11:40:08;;;;;;;2.85;1.60;;;;;;;29.02;36.19;101815.38;3589722;39;20052;-64
2022/08/30 11:42:46;;;;;;;2.50;1.60;;;;;;;29.19;35.13;101816.88;3589684;39;20088;-64
2022/08/30 11:45:21;;;;;;;5.07;2.40;;;;;;;29.10;36.64;101810.59;3588046;39;20052;-65